createdAt,value
2023-04-24T00:00:21.595Z,97.74
2023-04-24T00:02:51.918Z,97.81
2023-04-24T00:05:22.096Z,97.81
2023-04-24T00:07:56.119Z,97.69
2023-04-24T00:10:25.928Z,98.01
2023-04-24T00:12:56.044Z,98.11
2023-04-24T00:15:25.721Z,97.66
2023-04-24T00:17:55.608Z,96.93
2023-04-24T00:20:25.377Z,96.69
2023-04-24T00:22:55.568Z,97.17
2023-04-24T00:25:25.197Z,97.08
2023-04-24T00:27:55.305Z,97.33
2023-04-24T00:30:25.315Z,97.24
2023-04-24T00:32:55.634Z,96.74
2023-04-24T00:35:25.868Z,96.07
2023-04-24T00:37:56.231Z,96.22
2023-04-24T00:40:25.751Z,96.03
2023-04-24T00:42:56.675Z,95.03
2023-04-24T00:45:27.521Z,94.01
2023-04-24T00:47:58.129Z,94.01
2023-04-24T00:50:28.055Z,95.90
2023-04-24T00:52:59.180Z,95.84
2023-04-24T00:55:29.448Z,95.08
2023-04-24T00:58:00.381Z,96.92
2023-04-24T01:00:31.022Z,97.25
2023-04-24T01:03:03.623Z,96.74
2023-04-24T01:05:35.241Z,96.79
2023-04-24T01:08:05.612Z,96.54
2023-04-24T01:10:36.565Z,95.94
2023-04-24T01:13:06.751Z,96.31
2023-04-24T01:15:37.355Z,96.27
2023-04-24T01:18:07.678Z,96.59
2023-04-24T01:20:40.269Z,96.07
2023-04-24T01:23:10.632Z,96.45
2023-04-24T01:25:40.766Z,95.54
2023-04-24T01:28:11.240Z,94.05
2023-04-24T01:30:41.282Z,94.73
2023-04-24T01:33:11.651Z,95.32
2023-04-24T01:35:42.047Z,96.22
2023-04-24T01:38:11.981Z,95.79
2023-04-24T01:40:42.258Z,96.52
2023-04-24T01:43:13.048Z,97.64
2023-04-24T01:45:42.907Z,97.29
2023-04-24T01:48:14.588Z,96.43
2023-04-24T01:50:44.528Z,97.31
2023-04-24T01:53:14.889Z,96.72
2023-04-24T01:55:45.018Z,97.00
2023-04-24T01:58:16.277Z,96.93
2023-04-24T02:00:46.438Z,97.04
2023-04-24T02:03:17.359Z,96.43
2023-04-24T02:05:47.234Z,97.65
2023-04-24T02:08:17.352Z,96.61
2023-04-24T02:10:47.465Z,96.26
2023-04-24T02:13:17.592Z,96.10
2023-04-24T02:15:47.432Z,96.06
2023-04-24T02:18:17.790Z,97.29
2023-04-24T02:20:47.592Z,97.29
2023-04-24T02:23:17.734Z,96.58
2023-04-24T02:25:48.231Z,97.17
2023-04-24T02:28:20.148Z,98.12
2023-04-24T02:30:49.948Z,97.57
2023-04-24T02:33:20.146Z,98.47
2023-04-24T02:35:50.036Z,98.05
2023-04-24T02:38:20.271Z,98.22
2023-04-24T02:40:50.135Z,97.60
2023-04-24T02:43:20.255Z,97.26
2023-04-24T02:45:50.233Z,96.78
2023-04-24T02:48:21.760Z,97.65
2023-04-24T02:50:51.997Z,97.84
2023-04-24T02:53:22.182Z,97.05
2023-04-24T02:55:52.013Z,98.83
2023-04-24T02:58:22.193Z,98.66
2023-04-24T03:00:59.207Z,99.61
2023-04-24T03:03:29.236Z,98.34
2023-04-24T03:05:59.748Z,97.58
2023-04-24T03:08:29.573Z,99.03
2023-04-24T03:10:59.447Z,100.00
2023-04-24T03:13:29.265Z,98.88
2023-04-24T03:15:59.182Z,98.58
2023-04-24T03:18:29.624Z,97.36
2023-04-24T03:21:00.339Z,97.96
2023-04-24T03:23:30.501Z,98.40
2023-04-24T03:26:00.542Z,97.65
2023-04-24T03:28:30.491Z,98.02
2023-04-24T03:31:02.318Z,98.03
2023-04-24T03:33:33.844Z,96.94
2023-04-24T03:36:04.289Z,97.36
2023-04-24T03:38:41.473Z,97.36
2023-04-24T03:41:18.787Z,97.50
2023-04-24T03:43:50.540Z,96.46
2023-04-24T03:46:21.364Z,97.21
2023-04-24T03:48:52.924Z,97.11
2023-04-24T03:51:24.523Z,96.00
2023-04-24T03:53:56.367Z,97.62
2023-04-24T03:56:26.683Z,97.88
2023-04-24T03:58:56.501Z,97.89
2023-04-24T04:01:26.547Z,96.40
2023-04-24T04:04:01.147Z,95.91
2023-04-24T04:06:35.425Z,96.55
2023-04-24T04:09:05.571Z,96.85
2023-04-24T04:11:36.328Z,96.43
2023-04-24T04:14:06.362Z,96.59
2023-04-24T04:16:37.551Z,96.35
2023-04-24T04:19:08.520Z,96.62
2023-04-24T04:21:38.498Z,96.62
2023-04-24T04:24:12.786Z,96.26
2023-04-24T04:26:46.254Z,95.84
2023-04-24T04:29:18.737Z,95.94
2023-04-24T04:31:49.309Z,94.97
2023-04-24T04:34:19.393Z,94.38
2023-04-24T04:36:49.236Z,94.27
2023-04-24T04:39:32.759Z,94.80
2023-04-24T04:42:04.838Z,95.48
2023-04-24T04:44:36.920Z,95.17
2023-04-24T04:47:07.544Z,96.93
2023-04-24T04:49:39.906Z,96.62
2023-04-24T04:52:12.191Z,96.88
2023-04-24T04:54:42.292Z,97.36
2023-04-24T04:57:13.013Z,98.73
2023-04-24T04:59:43.350Z,98.42
2023-04-24T05:02:15.111Z,99.47
2023-04-24T05:04:46.362Z,100.00
2023-04-24T05:07:16.955Z,99.53
2023-04-24T05:09:48.513Z,100.00
2023-04-24T05:12:18.406Z,99.66
2023-04-24T05:14:50.885Z,97.62
2023-04-24T05:17:20.784Z,97.47
2023-04-24T05:19:50.443Z,97.82
2023-04-24T05:22:21.915Z,98.17
2023-04-24T05:24:54.158Z,97.24
2023-04-24T05:27:42.210Z,98.33
2023-04-24T05:30:14.634Z,98.60
2023-04-24T05:32:44.660Z,97.29
2023-04-24T05:35:14.257Z,97.23
2023-04-24T05:37:44.144Z,97.55
2023-04-24T05:40:14.472Z,96.88
2023-04-24T05:42:45.192Z,97.55
2023-04-24T05:45:16.649Z,96.45
2023-04-24T05:47:46.643Z,96.10
2023-04-24T05:50:17.448Z,96.10
2023-04-24T05:52:47.455Z,96.97
2023-04-24T05:55:19.456Z,95.58
2023-04-24T05:57:49.430Z,95.35
2023-04-24T06:00:20.778Z,96.42
2023-04-24T06:02:53.975Z,95.31
2023-04-24T06:05:24.557Z,95.37
2023-04-24T06:07:55.969Z,95.78
2023-04-24T06:10:27.483Z,95.06
2023-04-24T06:12:58.975Z,94.23
2023-04-24T06:15:31.925Z,94.70
2023-04-24T06:18:06.456Z,96.25
2023-04-24T06:20:36.369Z,96.25
2023-04-24T06:23:06.220Z,95.57
2023-04-24T06:25:36.426Z,96.98
2023-04-24T06:28:07.049Z,97.49
2023-04-24T06:30:38.474Z,95.93
2023-04-24T06:33:19.615Z,98.03
2023-04-24T06:35:39.992Z,97.11
2023-04-24T06:38:09.599Z,97.12
2023-04-24T06:40:40.102Z,98.35
2023-04-24T06:43:10.602Z,98.77
2023-04-24T06:45:41.263Z,97.95
2023-04-24T06:48:11.864Z,98.24
2023-04-24T06:50:41.729Z,98.82
2023-04-24T06:53:13.170Z,99.18
2023-04-24T06:55:44.208Z,99.73
2023-04-24T06:58:14.703Z,98.30
2023-04-24T07:00:44.484Z,98.97
2023-04-24T07:03:14.486Z,98.99
2023-04-24T07:05:44.417Z,98.99
2023-04-24T07:08:17.407Z,98.35
2023-04-24T07:10:47.202Z,98.30
2023-04-24T07:13:17.302Z,99.21
2023-04-24T07:15:47.194Z,99.14
2023-04-24T07:18:17.333Z,98.69
2023-04-24T07:20:47.517Z,99.35
2023-04-24T07:23:17.584Z,99.56
2023-04-24T07:25:47.891Z,100.00
2023-04-24T07:28:18.935Z,100.00
2023-04-24T07:30:48.794Z,100.00
2023-04-24T07:33:18.758Z,100.00
2023-04-24T07:35:48.624Z,100.00
2023-04-24T07:38:20.178Z,100.00
2023-04-24T07:40:50.533Z,100.00
2023-04-24T07:43:22.357Z,100.00
2023-04-24T07:45:53.046Z,100.00
2023-04-24T07:48:23.208Z,100.00
2023-04-24T07:50:53.016Z,100.00
2023-04-24T07:53:22.960Z,100.00
2023-04-24T07:55:52.796Z,100.00
2023-04-24T07:58:22.674Z,100.00
2023-04-24T08:00:53.197Z,100.00
2023-04-24T08:03:22.963Z,100.00
2023-04-24T08:05:53.319Z,100.00
2023-04-24T08:08:24.902Z,100.00
2023-04-24T08:10:55.825Z,100.00
2023-04-24T08:13:25.919Z,99.76
2023-04-24T08:15:56.205Z,99.95
2023-04-24T08:18:25.839Z,99.95
2023-04-24T08:20:55.799Z,99.59
2023-04-24T08:23:25.699Z,98.02
2023-04-24T08:25:55.936Z,98.65
2023-04-24T08:28:25.661Z,99.93
2023-04-24T08:33:28.122Z,98.72
2023-04-24T08:35:58.262Z,100.00
2023-04-24T08:38:27.863Z,99.96
2023-04-24T08:41:00.387Z,100.00
2023-04-24T08:43:30.617Z,99.77
2023-04-24T08:46:01.253Z,99.85
2023-04-24T08:48:32.404Z,99.79
2023-04-24T08:51:03.229Z,100.00
2023-04-24T08:53:34.799Z,100.00
2023-04-24T08:56:05.711Z,99.96
2023-04-24T08:58:36.093Z,100.00
2023-04-24T09:01:07.230Z,99.19
2023-04-24T09:03:37.853Z,98.89
2023-04-24T09:06:11.392Z,98.51
2023-04-24T09:08:42.966Z,98.92
2023-04-24T09:11:13.398Z,99.02
2023-04-24T09:13:45.048Z,98.00
2023-04-24T09:16:15.755Z,97.20
2023-04-24T09:18:45.633Z,96.55
2023-04-24T09:21:15.684Z,95.70
2023-04-24T09:23:45.950Z,93.41
2023-04-24T09:26:15.920Z,91.64
2023-04-24T09:28:47.074Z,90.45
2023-04-24T09:31:19.677Z,90.75
2023-04-24T09:34:02.311Z,90.62
2023-04-24T09:36:40.197Z,90.98
2023-04-24T09:39:16.370Z,90.33
2023-04-24T09:41:48.094Z,90.33
2023-04-24T09:44:19.398Z,89.54
2023-04-24T09:46:55.636Z,87.09
2023-04-24T09:49:29.423Z,86.95
2023-04-24T09:52:13.191Z,87.92
2023-04-24T09:54:43.117Z,86.42
2023-04-24T09:57:12.969Z,84.19
2023-04-24T09:59:47.821Z,83.99
2023-04-24T10:02:23.569Z,83.72
2023-04-24T10:05:01.454Z,82.20
2023-04-24T10:07:33.170Z,80.39
2023-04-24T10:10:03.307Z,81.08
2023-04-24T10:12:33.586Z,79.05
2023-04-24T10:15:04.157Z,78.30
2023-04-24T10:17:34.390Z,75.66
2023-04-24T10:20:08.132Z,74.65
2023-04-24T10:22:38.868Z,75.25
2023-04-24T10:25:09.261Z,74.66
2023-04-24T10:27:39.865Z,73.94
2023-04-24T10:30:11.062Z,72.93
2023-04-24T10:32:41.028Z,75.51
2023-04-24T10:35:11.922Z,75.70
2023-04-24T10:38:08.654Z,75.06
2023-04-24T10:40:38.901Z,72.51
2023-04-24T10:43:13.270Z,73.96
2023-04-24T10:45:43.142Z,73.39
2023-04-24T10:48:14.902Z,74.74
2023-04-24T10:50:48.533Z,75.47
2023-04-24T10:53:21.263Z,73.94
2023-04-24T10:56:02.599Z,74.85
2023-04-24T10:58:41.654Z,75.46
2023-04-24T11:01:13.013Z,75.70
2023-04-24T11:03:47.755Z,75.50
2023-04-24T11:06:17.740Z,74.46
2023-04-24T11:08:50.034Z,75.10
2023-04-24T11:11:22.226Z,72.81
2023-04-24T11:14:00.965Z,73.36
2023-04-24T11:16:39.952Z,71.61
2023-04-24T11:19:12.201Z,71.84
2023-04-24T11:21:44.499Z,72.23
2023-04-24T11:24:43.497Z,71.00
2023-04-24T11:27:20.919Z,71.41
2023-04-24T11:30:05.377Z,72.67
2023-04-24T11:32:38.457Z,73.51
2023-04-24T11:35:26.118Z,73.15
2023-04-24T11:40:28.223Z,74.07
2023-04-24T11:42:58.196Z,76.39
2023-04-24T11:45:31.034Z,76.98
2023-04-24T11:48:01.024Z,76.66
2023-04-24T11:50:31.249Z,78.02
2023-04-24T11:53:01.446Z,79.12
2023-04-24T11:55:31.762Z,78.61
2023-04-24T11:58:02.523Z,76.73
2023-04-24T12:00:37.657Z,73.94
2023-04-24T12:03:10.190Z,74.07
2023-04-24T12:05:41.460Z,71.38
2023-04-24T12:08:12.577Z,70.08
2023-04-24T12:10:42.363Z,68.58
2023-04-24T12:13:12.710Z,68.86
2023-04-24T12:15:43.281Z,66.01
2023-04-24T12:18:14.846Z,67.96
2023-04-24T12:20:44.683Z,68.17
2023-04-24T12:23:14.277Z,70.07
2023-04-24T12:25:44.113Z,68.20
2023-04-24T12:28:15.139Z,70.39
2023-04-24T12:30:46.647Z,72.62
2023-04-24T12:33:21.490Z,73.61
2023-04-24T12:35:56.474Z,75.26
2023-04-24T12:38:30.489Z,77.53
2023-04-24T12:41:12.014Z,80.45
2023-04-24T12:43:52.938Z,80.45
2023-04-24T12:46:23.029Z,83.63
2023-04-24T12:48:52.973Z,81.37
2023-04-24T12:51:22.882Z,79.71
2023-04-24T12:53:56.065Z,79.48
2023-04-24T12:56:25.368Z,78.92
2023-04-24T12:58:55.353Z,75.15
2023-04-24T13:01:25.312Z,73.67
2023-04-24T13:03:55.935Z,73.67
2023-04-24T13:06:27.280Z,74.21
2023-04-24T13:08:58.845Z,74.79
2023-04-24T13:11:29.006Z,72.69
2023-04-24T13:13:58.795Z,73.55
2023-04-24T13:16:28.759Z,73.55
2023-04-24T13:18:58.566Z,72.78
2023-04-24T13:21:28.439Z,72.46
2023-04-24T13:23:58.371Z,72.30
2023-04-24T13:26:28.149Z,72.30
2023-04-24T13:28:57.965Z,72.54
2023-04-24T13:31:27.844Z,70.97
2023-04-24T13:33:57.707Z,71.42
2023-04-24T13:36:27.781Z,67.53
2023-04-24T13:38:57.621Z,65.81
2023-04-24T13:41:27.572Z,65.41
2023-04-24T13:43:57.772Z,65.54
2023-04-24T13:46:28.051Z,65.41
2023-04-24T13:48:58.461Z,65.38
2023-04-24T13:51:28.724Z,67.29
2023-04-24T13:53:58.354Z,67.69
2023-04-24T13:56:28.498Z,66.73
2023-04-24T13:58:58.848Z,68.68
2023-04-24T14:01:28.764Z,69.67
2023-04-24T14:03:59.119Z,73.43
2023-04-24T14:06:29.109Z,72.70
2023-04-24T14:08:59.018Z,69.50
2023-04-24T14:11:29.384Z,67.74
2023-04-24T14:13:59.294Z,67.74
2023-04-24T14:16:30.196Z,68.94
2023-04-24T14:19:00.242Z,68.38
2023-04-24T14:21:30.076Z,69.46
2023-04-24T14:23:59.873Z,71.14
2023-04-24T14:26:29.806Z,71.14
2023-04-24T14:29:11.535Z,70.87
2023-04-24T14:31:31.825Z,71.23
2023-04-24T14:34:01.982Z,71.23
2023-04-24T14:36:32.556Z,70.24
2023-04-24T14:39:04.234Z,69.71
2023-04-24T14:41:36.827Z,69.18
2023-04-24T14:44:08.181Z,68.35
2023-04-24T14:46:38.057Z,68.35
2023-04-24T14:49:09.577Z,68.19
2023-04-24T14:51:40.105Z,71.19
2023-04-24T14:54:11.317Z,71.19
2023-04-24T14:56:41.958Z,72.10
2023-04-24T14:59:12.298Z,73.06
2023-04-24T15:01:42.118Z,73.31
2023-04-24T15:04:11.917Z,74.28
2023-04-24T15:06:41.784Z,75.16
2023-04-24T15:09:11.599Z,73.65
2023-04-24T15:11:41.551Z,73.65
2023-04-24T15:14:12.326Z,74.16
2023-04-24T15:16:42.782Z,74.83
2023-04-24T15:19:12.744Z,73.52
2023-04-24T15:21:43.576Z,73.18
2023-04-24T15:24:13.073Z,73.55
2023-04-24T15:26:42.923Z,72.18
2023-04-24T15:29:12.798Z,72.47
2023-04-24T15:31:42.889Z,72.04
2023-04-24T15:34:12.745Z,71.09
2023-04-24T15:36:42.865Z,70.75
2023-04-24T15:39:12.857Z,69.90
2023-04-24T15:41:42.708Z,70.15
2023-04-24T15:44:12.249Z,70.00
2023-04-24T15:46:42.165Z,70.63
2023-04-24T15:49:12.169Z,70.65
2023-04-24T15:51:42.469Z,71.04
2023-04-24T15:54:12.023Z,71.65
2023-04-24T15:56:41.843Z,68.87
2023-04-24T15:59:11.841Z,67.23
2023-04-24T16:01:41.911Z,66.12
2023-04-24T16:04:12.221Z,66.22
2023-04-24T16:06:42.544Z,66.43
2023-04-24T16:09:13.481Z,63.62
2023-04-24T16:11:44.479Z,63.62
2023-04-24T16:14:14.318Z,62.61
2023-04-24T16:16:44.482Z,61.21
2023-04-24T16:19:14.681Z,59.62
2023-04-24T16:21:44.536Z,59.24
2023-04-24T16:24:14.495Z,59.38
2023-04-24T16:26:44.859Z,60.41
2023-04-24T16:29:15.496Z,57.92
2023-04-24T16:31:45.666Z,60.11
2023-04-24T16:34:15.664Z,60.32
2023-04-24T16:36:45.739Z,59.39
2023-04-24T16:39:15.355Z,59.34
2023-04-24T16:41:45.343Z,58.95
2023-04-24T16:44:14.952Z,59.45
2023-04-24T16:46:44.956Z,59.92
2023-04-24T16:49:15.148Z,60.86
2023-04-24T16:51:45.453Z,60.32
2023-04-24T16:54:15.036Z,60.83
2023-04-24T16:56:45.030Z,60.50
2023-04-24T16:59:15.012Z,61.04
2023-04-24T17:01:45.015Z,61.67
2023-04-24T17:04:15.157Z,62.26
2023-04-24T17:06:45.093Z,61.68
2023-04-24T17:09:15.761Z,60.43
2023-04-24T17:11:45.668Z,60.99
2023-04-24T17:14:15.255Z,59.84
2023-04-24T17:16:46.078Z,60.25
2023-04-24T17:19:16.178Z,59.78
2023-04-24T17:21:46.362Z,59.63
2023-04-24T17:24:16.104Z,58.84
2023-04-24T17:26:46.179Z,57.04
2023-04-24T17:29:16.124Z,55.28
2023-04-24T17:31:46.397Z,55.53
2023-04-24T17:34:16.128Z,55.34
2023-04-24T17:36:46.068Z,55.23
2023-04-24T17:39:16.642Z,55.61
2023-04-24T17:41:46.555Z,57.24
2023-04-24T17:44:16.385Z,59.71
2023-04-24T17:46:46.676Z,61.09
2023-04-24T17:49:16.276Z,62.71
2023-04-24T17:51:46.218Z,63.24
2023-04-24T17:56:42.364Z,64.90
2023-04-24T17:59:12.295Z,65.49
2023-04-24T18:01:42.274Z,65.04
2023-04-24T18:04:12.172Z,66.49
2023-04-24T18:06:42.262Z,66.00
2023-04-24T18:09:12.870Z,65.79
2023-04-24T18:11:42.978Z,66.39
2023-04-24T18:14:12.858Z,67.45
2023-04-24T18:16:42.678Z,66.86
2023-04-24T18:19:12.820Z,66.86
2023-04-24T18:21:42.421Z,66.35
2023-04-24T18:24:12.345Z,66.22
2023-04-24T18:26:42.310Z,67.34
2023-04-24T18:29:12.175Z,67.44
2023-04-24T18:31:42.116Z,66.79
2023-04-24T18:34:11.951Z,67.39
2023-04-24T18:36:41.740Z,67.67
2023-04-24T18:39:11.551Z,67.91
2023-04-24T18:41:41.450Z,68.27
2023-04-24T18:44:11.956Z,68.16
2023-04-24T18:46:41.823Z,68.25
2023-04-24T18:49:11.746Z,68.38
2023-04-24T18:51:53.240Z,68.41
2023-04-24T18:54:13.147Z,68.36
2023-04-24T18:56:42.994Z,68.87
2023-04-24T18:59:12.792Z,69.17
2023-04-24T19:01:42.765Z,68.94
2023-04-24T19:04:13.709Z,69.96
2023-04-24T19:06:43.599Z,69.91
2023-04-24T19:09:14.484Z,70.64
2023-04-24T19:11:44.730Z,71.57
2023-04-24T19:14:16.101Z,71.57
2023-04-24T19:16:46.201Z,71.79
2023-04-24T19:19:16.113Z,70.88
2023-04-24T19:21:47.340Z,70.90
2023-04-24T19:24:18.947Z,70.90
2023-04-24T19:26:49.108Z,71.94
2023-04-24T19:29:18.937Z,72.05
2023-04-24T19:31:48.821Z,71.39
2023-04-24T19:34:18.650Z,72.99
2023-04-24T19:36:48.184Z,72.53
2023-04-24T19:39:17.969Z,73.12
2023-04-24T19:41:47.842Z,72.98
2023-04-24T19:44:17.656Z,73.19
2023-04-24T19:46:48.240Z,73.50
2023-04-24T19:49:18.320Z,73.18
2023-04-24T19:51:48.204Z,73.03
2023-04-24T19:54:19.809Z,73.11
2023-04-24T19:56:49.680Z,74.00
2023-04-24T19:59:19.488Z,74.89
2023-04-24T20:01:50.810Z,74.04
2023-04-24T20:04:22.740Z,74.74
2023-04-24T20:06:52.730Z,74.92
2023-04-24T20:09:22.842Z,74.73
2023-04-24T20:11:53.583Z,75.50
2023-04-24T20:14:23.271Z,75.42
2023-04-24T20:16:54.327Z,75.06
2023-04-24T20:19:24.128Z,75.72
2023-04-24T20:21:54.689Z,75.65
2023-04-24T20:24:24.222Z,77.12
2023-04-24T20:26:53.997Z,77.77
2023-04-24T20:29:23.860Z,77.22
2023-04-24T20:31:54.149Z,77.22
2023-04-24T20:34:24.553Z,77.97
2023-04-24T20:36:56.013Z,78.24
2023-04-24T20:39:26.626Z,78.66
2023-04-24T20:41:58.235Z,79.37
2023-04-24T20:44:27.936Z,77.84
2023-04-24T20:46:57.793Z,79.60
2023-04-24T20:49:27.378Z,79.69
2023-04-24T20:51:59.097Z,79.90
2023-04-24T20:54:28.863Z,80.51
2023-04-24T20:56:58.647Z,80.00
2023-04-24T20:59:29.022Z,80.00
2023-04-24T21:01:59.157Z,80.19
2023-04-24T21:04:29.077Z,81.35
2023-04-24T21:06:58.926Z,80.33
2023-04-24T21:09:28.796Z,81.07
2023-04-24T21:11:59.075Z,81.33
2023-04-24T21:14:28.907Z,81.64
2023-04-24T21:16:59.887Z,80.85
2023-04-24T21:19:29.891Z,82.08
2023-04-24T21:22:00.615Z,81.28
2023-04-24T21:24:30.800Z,82.67
2023-04-24T21:27:01.191Z,81.48
2023-04-24T21:29:31.088Z,81.45
2023-04-24T21:32:01.237Z,81.45
2023-04-24T21:34:30.998Z,82.17
2023-04-24T21:37:00.803Z,82.03
2023-04-24T21:39:30.633Z,82.87
2023-04-24T21:42:00.501Z,83.54
2023-04-24T21:44:30.633Z,83.50
2023-04-24T21:47:00.871Z,83.76
2023-04-24T21:49:30.689Z,83.71
2023-04-24T21:52:00.544Z,82.54
2023-04-24T21:54:30.329Z,82.54
2023-04-24T21:57:02.196Z,83.53
2023-04-24T21:59:32.150Z,84.04
2023-04-24T22:02:01.697Z,83.90
2023-04-24T22:04:31.676Z,84.44
2023-04-24T22:07:01.754Z,84.50
2023-04-24T22:09:31.853Z,84.49
2023-04-24T22:12:01.691Z,84.79
2023-04-24T22:14:31.292Z,85.28
2023-04-24T22:17:01.118Z,85.60
2023-04-24T22:19:30.925Z,86.29
2023-04-24T22:22:00.815Z,86.26
2023-04-24T22:24:30.682Z,85.70
2023-04-24T22:27:00.500Z,85.48
2023-04-24T22:29:31.503Z,85.12
2023-04-24T22:32:01.529Z,85.56
2023-04-24T22:34:31.638Z,84.89
2023-04-24T22:37:01.845Z,85.04
2023-04-24T22:39:31.630Z,85.09
2023-04-24T22:42:01.931Z,85.25
2023-04-24T22:44:31.830Z,85.26
2023-04-24T22:47:03.303Z,84.89
2023-04-24T22:49:34.830Z,83.65
2023-04-24T22:52:06.410Z,84.19
2023-04-24T22:54:36.258Z,84.45
2023-04-24T22:57:06.250Z,84.08
2023-04-24T22:59:36.186Z,83.92
2023-04-24T23:02:07.972Z,84.22
2023-04-24T23:04:37.819Z,84.22
2023-04-24T23:07:07.613Z,84.45
2023-04-24T23:09:37.200Z,84.11
2023-04-24T23:12:09.563Z,83.90
2023-04-24T23:14:39.652Z,84.60
2023-04-24T23:17:09.814Z,84.39
2023-04-24T23:19:39.678Z,84.18
2023-04-24T23:22:11.368Z,83.63
2023-04-24T23:24:41.326Z,83.63
2023-04-24T23:27:11.360Z,84.39
2023-04-24T23:29:41.191Z,85.35
2023-04-24T23:32:11.557Z,84.60
2023-04-24T23:34:41.457Z,84.26
2023-04-24T23:37:12.308Z,84.04
2023-04-24T23:39:42.087Z,84.39
2023-04-24T23:42:12.927Z,84.00
2023-04-24T23:44:42.840Z,84.00
2023-04-24T23:47:12.729Z,83.53
2023-04-24T23:49:42.885Z,83.90
2023-04-24T23:52:12.750Z,84.43
2023-04-24T23:54:42.903Z,85.38
2023-04-24T23:57:12.722Z,85.38
2023-04-24T23:59:42.532Z,86.00
